sensor_id;sensor_type;location;lat;lon;timestamp;temperature;humidity
10249;DHT22;5169;50.560;9.714;2023-04-06T00:00:01;1.30;99.90
10249;DHT22;5169;50.560;9.714;2023-04-06T00:02:27;1.40;99.90
10249;DHT22;5169;50.560;9.714;2023-04-06T00:04:55;1.50;99.90
10249;DHT22;5169;50.560;9.714;2023-04-06T00:07:23;1.50;99.90
10249;DHT22;5169;50.560;9.714;2023-04-06T00:09:49;1.60;99.90
10249;DHT22;5169;50.560;9.714;2023-04-06T00:12:15;1.50;99.90
10249;DHT22;5169;50.560;9.714;2023-04-06T00:14:42;1.50;99.90
10249;DHT22;5169;50.560;9.714;2023-04-06T00:17:10;1.60;99.90
10249;DHT22;5169;50.560;9.714;2023-04-06T00:19:36;1.60;99.90
10249;DHT22;5169;50.560;9.714;2023-04-06T00:22:02;1.40;99.90
10249;DHT22;5169;50.560;9.714;2023-04-06T00:24:30;1.30;99.90
10249;DHT22;5169;50.560;9.714;2023-04-06T00:26:56;1.30;99.90
10249;DHT22;5169;50.560;9.714;2023-04-06T00:29:24;1.20;99.90
10249;DHT22;5169;50.560;9.714;2023-04-06T00:31:49;1.20;99.90
10249;DHT22;5169;50.560;9.714;2023-04-06T00:34:15;1.30;99.90
10249;DHT22;5169;50.560;9.714;2023-04-06T00:36:41;1.30;99.90
10249;DHT22;5169;50.560;9.714;2023-04-06T00:39:07;1.30;99.90
10249;DHT22;5169;50.560;9.714;2023-04-06T00:41:32;1.30;99.90
10249;DHT22;5169;50.560;9.714;2023-04-06T00:43:58;1.30;99.90
10249;DHT22;5169;50.560;9.714;2023-04-06T00:46:24;1.40;99.90
10249;DHT22;5169;50.560;9.714;2023-04-06T00:48:51;1.40;99.90
10249;DHT22;5169;50.560;9.714;2023-04-06T00:51:17;1.30;99.90
10249;DHT22;5169;50.560;9.714;2023-04-06T00:53:43;1.30;99.90
10249;DHT22;5169;50.560;9.714;2023-04-06T00:56:13;1.30;99.90
10249;DHT22;5169;50.560;9.714;2023-04-06T00:58:39;1.30;99.90
10249;DHT22;5169;50.560;9.714;2023-04-06T01:01:06;1.10;99.90
10249;DHT22;5169;50.560;9.714;2023-04-06T01:03:31;1.00;99.90
10249;DHT22;5169;50.560;9.714;2023-04-06T01:05:59;1.00;99.90
10249;DHT22;5169;50.560;9.714;2023-04-06T01:08:27;1.00;99.90
10249;DHT22;5169;50.560;9.714;2023-04-06T01:10:53;1.00;99.90
10249;DHT22;5169;50.560;9.714;2023-04-06T01:13:18;1.00;99.90
10249;DHT22;5169;50.560;9.714;2023-04-06T01:15:45;1.00;99.90
10249;DHT22;5169;50.560;9.714;2023-04-06T01:18:14;1.00;99.90
10249;DHT22;5169;50.560;9.714;2023-04-06T01:20:42;1.00;99.90
10249;DHT22;5169;50.560;9.714;2023-04-06T01:23:07;1.00;99.90
10249;DHT22;5169;50.560;9.714;2023-04-06T01:25:33;1.10;99.90
10249;DHT22;5169;50.560;9.714;2023-04-06T01:27:58;1.10;99.90
10249;DHT22;5169;50.560;9.714;2023-04-06T01:30:27;1.00;99.90
10249;DHT22;5169;50.560;9.714;2023-04-06T01:32:55;1.10;99.90
10249;DHT22;5169;50.560;9.714;2023-04-06T01:35:21;1.20;99.90
10249;DHT22;5169;50.560;9.714;2023-04-06T01:37:47;1.10;99.90
10249;DHT22;5169;50.560;9.714;2023-04-06T01:40:13;1.10;99.90
10249;DHT22;5169;50.560;9.714;2023-04-06T01:42:39;0.90;99.90
10249;DHT22;5169;50.560;9.714;2023-04-06T01:45:05;0.80;99.90
10249;DHT22;5169;50.560;9.714;2023-04-06T01:47:31;0.80;99.90
10249;DHT22;5169;50.560;9.714;2023-04-06T01:49:56;0.70;99.90
10249;DHT22;5169;50.560;9.714;2023-04-06T01:52:24;0.80;99.90
10249;DHT22;5169;50.560;9.714;2023-04-06T01:54:50;0.80;99.90
10249;DHT22;5169;50.560;9.714;2023-04-06T01:57:15;0.70;99.90
10249;DHT22;5169;50.560;9.714;2023-04-06T01:59:45;0.60;99.90
10249;DHT22;5169;50.560;9.714;2023-04-06T02:02:13;0.60;99.90
10249;DHT22;5169;50.560;9.714;2023-04-06T02:04:41;0.70;99.90
10249;DHT22;5169;50.560;9.714;2023-04-06T02:07:12;0.60;99.90
10249;DHT22;5169;50.560;9.714;2023-04-06T02:09:37;0.50;99.90
10249;DHT22;5169;50.560;9.714;2023-04-06T02:12:08;0.50;99.90
10249;DHT22;5169;50.560;9.714;2023-04-06T02:14:33;0.60;99.90
10249;DHT22;5169;50.560;9.714;2023-04-06T02:17:01;0.60;99.90
10249;DHT22;5169;50.560;9.714;2023-04-06T02:19:29;0.40;99.90
10249;DHT22;5169;50.560;9.714;2023-04-06T02:21:59;0.40;99.90
10249;DHT22;5169;50.560;9.714;2023-04-06T02:24:28;0.50;99.90
10249;DHT22;5169;50.560;9.714;2023-04-06T02:26:56;0.50;99.90
10249;DHT22;5169;50.560;9.714;2023-04-06T02:29:21;0.50;99.90
10249;DHT22;5169;50.560;9.714;2023-04-06T02:31:47;0.50;99.90
10249;DHT22;5169;50.560;9.714;2023-04-06T02:34:13;0.60;99.90
10249;DHT22;5169;50.560;9.714;2023-04-06T02:36:44;0.70;99.90
10249;DHT22;5169;50.560;9.714;2023-04-06T02:39:10;0.80;99.90
10249;DHT22;5169;50.560;9.714;2023-04-06T02:41:38;0.70;99.90
10249;DHT22;5169;50.560;9.714;2023-04-06T02:44:06;0.60;99.90
10249;DHT22;5169;50.560;9.714;2023-04-06T02:46:35;0.70;99.90
10249;DHT22;5169;50.560;9.714;2023-04-06T02:49:03;0.60;99.90
10249;DHT22;5169;50.560;9.714;2023-04-06T02:51:28;0.50;99.90
10249;DHT22;5169;50.560;9.714;2023-04-06T02:53:54;0.50;99.90
10249;DHT22;5169;50.560;9.714;2023-04-06T02:56:20;0.50;99.90
10249;DHT22;5169;50.560;9.714;2023-04-06T02:58:48;0.60;99.90
10249;DHT22;5169;50.560;9.714;2023-04-06T03:01:14;0.60;99.90
10249;DHT22;5169;50.560;9.714;2023-04-06T03:03:40;0.60;99.90
10249;DHT22;5169;50.560;9.714;2023-04-06T03:06:06;0.70;99.90
10249;DHT22;5169;50.560;9.714;2023-04-06T03:08:31;0.70;99.90
10249;DHT22;5169;50.560;9.714;2023-04-06T03:11:02;0.60;99.90
10249;DHT22;5169;50.560;9.714;2023-04-06T03:13:27;0.70;99.90
10249;DHT22;5169;50.560;9.714;2023-04-06T03:15:53;0.70;99.90
10249;DHT22;5169;50.560;9.714;2023-04-06T03:18:22;0.60;99.90
10249;DHT22;5169;50.560;9.714;2023-04-06T03:20:48;0.70;99.90
10249;DHT22;5169;50.560;9.714;2023-04-06T03:23:14;0.70;99.90
10249;DHT22;5169;50.560;9.714;2023-04-06T03:25:39;0.80;99.90
10249;DHT22;5169;50.560;9.714;2023-04-06T03:28:05;0.80;99.90
10249;DHT22;5169;50.560;9.714;2023-04-06T03:30:31;0.90;99.90
10249;DHT22;5169;50.560;9.714;2023-04-06T03:32:57;1.00;99.90
10249;DHT22;5169;50.560;9.714;2023-04-06T03:35:22;1.20;99.90
10249;DHT22;5169;50.560;9.714;2023-04-06T03:37:48;1.10;99.90
10249;DHT22;5169;50.560;9.714;2023-04-06T03:40:14;1.00;99.90
10249;DHT22;5169;50.560;9.714;2023-04-06T03:42:39;1.00;99.90
10249;DHT22;5169;50.560;9.714;2023-04-06T03:45:08;0.90;99.90
10249;DHT22;5169;50.560;9.714;2023-04-06T03:47:38;0.80;99.90
10249;DHT22;5169;50.560;9.714;2023-04-06T03:50:04;0.70;99.90
10249;DHT22;5169;50.560;9.714;2023-04-06T03:52:31;0.50;99.90
10249;DHT22;5169;50.560;9.714;2023-04-06T03:54:59;0.40;99.90
10249;DHT22;5169;50.560;9.714;2023-04-06T03:57:27;0.40;99.90
10249;DHT22;5169;50.560;9.714;2023-04-06T03:59:53;0.30;99.90
10249;DHT22;5169;50.560;9.714;2023-04-06T04:02:21;0.30;99.90
10249;DHT22;5169;50.560;9.714;2023-04-06T04:04:47;0.30;99.90
10249;DHT22;5169;50.560;9.714;2023-04-06T04:07:12;0.50;99.90
10249;DHT22;5169;50.560;9.714;2023-04-06T04:09:38;0.30;99.90
10249;DHT22;5169;50.560;9.714;2023-04-06T04:12:03;0.30;99.90
10249;DHT22;5169;50.560;9.714;2023-04-06T04:14:29;0.40;99.90
10249;DHT22;5169;50.560;9.714;2023-04-06T04:16:57;0.40;99.90
10249;DHT22;5169;50.560;9.714;2023-04-06T04:19:23;0.10;99.90
10249;DHT22;5169;50.560;9.714;2023-04-06T04:21:48;-0.10;99.90
10249;DHT22;5169;50.560;9.714;2023-04-06T04:24:16;-0.10;99.90
10249;DHT22;5169;50.560;9.714;2023-04-06T04:26:44;0.00;99.90
10249;DHT22;5169;50.560;9.714;2023-04-06T04:29:10;0.10;99.90
10249;DHT22;5169;50.560;9.714;2023-04-06T04:31:35;0.10;99.90
10249;DHT22;5169;50.560;9.714;2023-04-06T04:34:01;-0.10;99.90
10249;DHT22;5169;50.560;9.714;2023-04-06T04:36:27;-0.10;99.90
10249;DHT22;5169;50.560;9.714;2023-04-06T04:38:52;0.20;99.90
10249;DHT22;5169;50.560;9.714;2023-04-06T04:41:18;0.20;99.90
10249;DHT22;5169;50.560;9.714;2023-04-06T04:43:44;0.00;99.90
10249;DHT22;5169;50.560;9.714;2023-04-06T04:46:10;0.10;99.90
10249;DHT22;5169;50.560;9.714;2023-04-06T04:48:35;-0.10;99.90
10249;DHT22;5169;50.560;9.714;2023-04-06T04:51:01;-0.10;99.90
10249;DHT22;5169;50.560;9.714;2023-04-06T04:53:27;-0.20;99.90
10249;DHT22;5169;50.560;9.714;2023-04-06T04:55:53;-0.20;99.90
10249;DHT22;5169;50.560;9.714;2023-04-06T04:58:20;-0.20;99.90
10249;DHT22;5169;50.560;9.714;2023-04-06T05:00:46;-0.20;99.90
10249;DHT22;5169;50.560;9.714;2023-04-06T05:03:19;-0.20;99.90
10249;DHT22;5169;50.560;9.714;2023-04-06T05:05:46;-0.10;99.90
10249;DHT22;5169;50.560;9.714;2023-04-06T05:08:12;-0.10;99.90
10249;DHT22;5169;50.560;9.714;2023-04-06T05:10:37;0.00;99.90
10249;DHT22;5169;50.560;9.714;2023-04-06T05:13:03;0.10;99.90
10249;DHT22;5169;50.560;9.714;2023-04-06T05:15:29;0.40;99.90
10249;DHT22;5169;50.560;9.714;2023-04-06T05:17:54;0.40;99.90
10249;DHT22;5169;50.560;9.714;2023-04-06T05:20:20;0.40;99.90
10249;DHT22;5169;50.560;9.714;2023-04-06T05:22:46;0.40;99.90
10249;DHT22;5169;50.560;9.714;2023-04-06T05:25:13;0.50;99.90
10249;DHT22;5169;50.560;9.714;2023-04-06T05:27:43;0.90;99.90
10249;DHT22;5169;50.560;9.714;2023-04-06T05:30:08;1.60;99.90
10249;DHT22;5169;50.560;9.714;2023-04-06T05:32:34;2.10;99.90
10249;DHT22;5169;50.560;9.714;2023-04-06T05:35:00;2.40;99.90
10249;DHT22;5169;50.560;9.714;2023-04-06T05:37:26;2.70;99.90
10249;DHT22;5169;50.560;9.714;2023-04-06T05:39:51;2.90;99.90
10249;DHT22;5169;50.560;9.714;2023-04-06T05:42:17;2.90;99.90
10249;DHT22;5169;50.560;9.714;2023-04-06T05:44:45;2.90;99.90
10249;DHT22;5169;50.560;9.714;2023-04-06T05:47:11;2.80;99.90
10249;DHT22;5169;50.560;9.714;2023-04-06T05:49:36;2.50;99.90
10249;DHT22;5169;50.560;9.714;2023-04-06T05:52:02;2.40;99.90
10249;DHT22;5169;50.560;9.714;2023-04-06T05:54:29;2.40;99.90
10249;DHT22;5169;50.560;9.714;2023-04-06T05:56:55;2.50;99.90
10249;DHT22;5169;50.560;9.714;2023-04-06T05:59:21;2.70;99.90
10249;DHT22;5169;50.560;9.714;2023-04-06T06:01:49;2.70;99.90
10249;DHT22;5169;50.560;9.714;2023-04-06T06:04:14;2.80;99.90
10249;DHT22;5169;50.560;9.714;2023-04-06T06:06:40;2.80;99.90
10249;DHT22;5169;50.560;9.714;2023-04-06T06:09:05;2.80;99.90
10249;DHT22;5169;50.560;9.714;2023-04-06T06:11:33;2.90;99.90
10249;DHT22;5169;50.560;9.714;2023-04-06T06:13:59;2.90;99.90
10249;DHT22;5169;50.560;9.714;2023-04-06T06:16:25;2.90;99.90
10249;DHT22;5169;50.560;9.714;2023-04-06T06:18:52;2.80;99.90
10249;DHT22;5169;50.560;9.714;2023-04-06T06:21:18;2.90;99.90
10249;DHT22;5169;50.560;9.714;2023-04-06T06:23:46;3.00;99.90
10249;DHT22;5169;50.560;9.714;2023-04-06T06:26:13;3.10;99.90
10249;DHT22;5169;50.560;9.714;2023-04-06T06:28:39;3.30;99.90
10249;DHT22;5169;50.560;9.714;2023-04-06T06:31:05;3.70;99.90
10249;DHT22;5169;50.560;9.714;2023-04-06T06:33:30;3.70;99.90
10249;DHT22;5169;50.560;9.714;2023-04-06T06:35:56;3.70;99.90
10249;DHT22;5169;50.560;9.714;2023-04-06T06:38:21;3.90;99.90
10249;DHT22;5169;50.560;9.714;2023-04-06T06:40:47;3.90;99.90
10249;DHT22;5169;50.560;9.714;2023-04-06T06:43:13;3.90;99.90
10249;DHT22;5169;50.560;9.714;2023-04-06T06:45:41;3.90;99.90
10249;DHT22;5169;50.560;9.714;2023-04-06T06:48:09;3.90;99.90
10249;DHT22;5169;50.560;9.714;2023-04-06T06:50:38;3.90;99.90
10249;DHT22;5169;50.560;9.714;2023-04-06T06:53:03;4.00;99.90
10249;DHT22;5169;50.560;9.714;2023-04-06T06:55:29;4.20;99.90
10249;DHT22;5169;50.560;9.714;2023-04-06T06:57:54;4.80;99.90
10249;DHT22;5169;50.560;9.714;2023-04-06T07:00:20;5.30;98.70
10249;DHT22;5169;50.560;9.714;2023-04-06T07:02:49;5.60;97.70
10249;DHT22;5169;50.560;9.714;2023-04-06T07:05:16;6.20;97.10
10249;DHT22;5169;50.560;9.714;2023-04-06T07:07:42;6.60;96.10
10249;DHT22;5169;50.560;9.714;2023-04-06T07:10:08;6.80;95.20
10249;DHT22;5169;50.560;9.714;2023-04-06T07:12:34;7.20;94.60
10249;DHT22;5169;50.560;9.714;2023-04-06T07:15:00;7.40;94.10
10249;DHT22;5169;50.560;9.714;2023-04-06T07:17:25;7.40;93.30
10249;DHT22;5169;50.560;9.714;2023-04-06T07:19:51;7.20;94.10
10249;DHT22;5169;50.560;9.714;2023-04-06T07:22:17;7.60;93.80
10249;DHT22;5169;50.560;9.714;2023-04-06T07:24:45;7.90;93.20
10249;DHT22;5169;50.560;9.714;2023-04-06T07:27:10;8.30;93.00
10249;DHT22;5169;50.560;9.714;2023-04-06T07:29:36;8.90;91.70
10249;DHT22;5169;50.560;9.714;2023-04-06T07:32:01;8.90;90.60
10249;DHT22;5169;50.560;9.714;2023-04-06T07:34:27;9.50;90.50
10249;DHT22;5169;50.560;9.714;2023-04-06T07:36:53;9.60;90.00
10249;DHT22;5169;50.560;9.714;2023-04-06T07:39:19;10.00;87.70
10249;DHT22;5169;50.560;9.714;2023-04-06T07:41:45;10.50;87.20
10249;DHT22;5169;50.560;9.714;2023-04-06T07:44:11;10.50;85.70
10249;DHT22;5169;50.560;9.714;2023-04-06T07:46:37;10.80;83.80
10249;DHT22;5169;50.560;9.714;2023-04-06T07:49:02;10.60;82.70
10249;DHT22;5169;50.560;9.714;2023-04-06T07:51:28;10.50;84.10
10249;DHT22;5169;50.560;9.714;2023-04-06T07:53:54;10.10;83.30
10249;DHT22;5169;50.560;9.714;2023-04-06T07:56:20;10.00;82.90
10249;DHT22;5169;50.560;9.714;2023-04-06T07:58:50;10.10;86.40
10249;DHT22;5169;50.560;9.714;2023-04-06T08:01:16;10.10;83.40
10249;DHT22;5169;50.560;9.714;2023-04-06T08:03:42;9.90;84.40
10249;DHT22;5169;50.560;9.714;2023-04-06T08:06:07;9.90;84.40
10249;DHT22;5169;50.560;9.714;2023-04-06T08:08:33;9.80;84.30
10249;DHT22;5169;50.560;9.714;2023-04-06T08:11:01;9.80;83.30
10249;DHT22;5169;50.560;9.714;2023-04-06T08:13:28;9.90;83.80
10249;DHT22;5169;50.560;9.714;2023-04-06T08:15:53;10.10;83.40
10249;DHT22;5169;50.560;9.714;2023-04-06T08:18:19;10.20;85.20
10249;DHT22;5169;50.560;9.714;2023-04-06T08:20:45;10.40;80.50
10249;DHT22;5169;50.560;9.714;2023-04-06T08:23:11;10.50;81.70
10249;DHT22;5169;50.560;9.714;2023-04-06T08:25:36;10.50;82.00
10249;DHT22;5169;50.560;9.714;2023-04-06T08:28:05;10.70;81.60
10249;DHT22;5169;50.560;9.714;2023-04-06T08:30:31;10.80;80.30
10249;DHT22;5169;50.560;9.714;2023-04-06T08:32:57;10.70;79.70
10249;DHT22;5169;50.560;9.714;2023-04-06T08:35:22;10.80;80.10
10249;DHT22;5169;50.560;9.714;2023-04-06T08:37:48;11.20;82.30
10249;DHT22;5169;50.560;9.714;2023-04-06T08:40:14;11.30;78.20
10249;DHT22;5169;50.560;9.714;2023-04-06T08:42:40;11.60;81.10
10249;DHT22;5169;50.560;9.714;2023-04-06T08:45:13;12.00;78.90
10249;DHT22;5169;50.560;9.714;2023-04-06T08:47:42;12.20;76.20
10249;DHT22;5169;50.560;9.714;2023-04-06T08:50:09;12.60;76.30
10249;DHT22;5169;50.560;9.714;2023-04-06T08:52:38;12.70;74.80
10249;DHT22;5169;50.560;9.714;2023-04-06T08:55:07;13.00;73.60
10249;DHT22;5169;50.560;9.714;2023-04-06T08:57:35;13.00;72.20
10249;DHT22;5169;50.560;9.714;2023-04-06T09:00:07;13.00;70.80
10249;DHT22;5169;50.560;9.714;2023-04-06T09:02:33;13.30;69.10
10249;DHT22;5169;50.560;9.714;2023-04-06T09:04:59;13.60;70.80
10249;DHT22;5169;50.560;9.714;2023-04-06T09:07:26;13.90;64.90
10249;DHT22;5169;50.560;9.714;2023-04-06T09:09:57;14.10;65.70
10249;DHT22;5169;50.560;9.714;2023-04-06T09:12:30;14.40;64.20
10249;DHT22;5169;50.560;9.714;2023-04-06T09:14:56;14.70;63.30
10249;DHT22;5169;50.560;9.714;2023-04-06T09:17:23;14.60;64.10
10249;DHT22;5169;50.560;9.714;2023-04-06T09:19:50;14.90;63.30
10249;DHT22;5169;50.560;9.714;2023-04-06T09:22:18;15.30;60.80
10249;DHT22;5169;50.560;9.714;2023-04-06T09:24:52;15.40;59.10
10249;DHT22;5169;50.560;9.714;2023-04-06T09:27:29;15.50;59.90
10249;DHT22;5169;50.560;9.714;2023-04-06T09:30:04;15.80;56.70
10249;DHT22;5169;50.560;9.714;2023-04-06T09:32:48;15.60;57.10
10249;DHT22;5169;50.560;9.714;2023-04-06T09:35:14;15.90;56.00
10249;DHT22;5169;50.560;9.714;2023-04-06T09:37:41;16.60;53.70
10249;DHT22;5169;50.560;9.714;2023-04-06T09:40:07;17.00;51.00
10249;DHT22;5169;50.560;9.714;2023-04-06T09:42:33;17.20;48.80
10249;DHT22;5169;50.560;9.714;2023-04-06T09:45:00;16.90;48.90
10249;DHT22;5169;50.560;9.714;2023-04-06T09:47:27;16.80;47.20
10249;DHT22;5169;50.560;9.714;2023-04-06T09:49:57;16.60;49.00
10249;DHT22;5169;50.560;9.714;2023-04-06T09:52:30;16.60;47.80
10249;DHT22;5169;50.560;9.714;2023-04-06T09:55:01;16.30;49.10
10249;DHT22;5169;50.560;9.714;2023-04-06T09:58:08;16.30;49.30
10249;DHT22;5169;50.560;9.714;2023-04-06T10:00:44;16.40;48.70
10249;DHT22;5169;50.560;9.714;2023-04-06T10:05:52;16.70;50.20
10249;DHT22;5169;50.560;9.714;2023-04-06T10:08:21;16.80;49.40
10249;DHT22;5169;50.560;9.714;2023-04-06T10:10:50;17.20;47.00
10249;DHT22;5169;50.560;9.714;2023-04-06T10:13:17;17.60;47.60
10249;DHT22;5169;50.560;9.714;2023-04-06T10:15:44;18.00;45.90
10249;DHT22;5169;50.560;9.714;2023-04-06T10:18:10;18.00;45.10
10249;DHT22;5169;50.560;9.714;2023-04-06T10:20:43;18.40;44.50
10249;DHT22;5169;50.560;9.714;2023-04-06T10:25:58;18.80;42.40
10249;DHT22;5169;50.560;9.714;2023-04-06T10:28:25;18.60;44.10
10249;DHT22;5169;50.560;9.714;2023-04-06T10:30:58;18.50;44.60
10249;DHT22;5169;50.560;9.714;2023-04-06T10:33:28;18.70;45.90
10249;DHT22;5169;50.560;9.714;2023-04-06T10:35:54;19.50;43.20
10249;DHT22;5169;50.560;9.714;2023-04-06T10:38:43;20.10;41.80
10249;DHT22;5169;50.560;9.714;2023-04-06T10:41:11;19.90;40.60
10249;DHT22;5169;50.560;9.714;2023-04-06T10:43:40;19.60;41.10
10249;DHT22;5169;50.560;9.714;2023-04-06T10:46:07;20.10;41.80
10249;DHT22;5169;50.560;9.714;2023-04-06T10:48:40;19.20;43.30
10249;DHT22;5169;50.560;9.714;2023-04-06T10:51:17;18.30;44.30
10249;DHT22;5169;50.560;9.714;2023-04-06T10:53:47;19.60;42.60
10249;DHT22;5169;50.560;9.714;2023-04-06T10:56:17;20.50;40.60
10249;DHT22;5169;50.560;9.714;2023-04-06T10:58:51;20.20;39.40
10249;DHT22;5169;50.560;9.714;2023-04-06T11:01:21;19.90;42.50
10249;DHT22;5169;50.560;9.714;2023-04-06T11:03:55;20.50;40.10
10249;DHT22;5169;50.560;9.714;2023-04-06T11:06:29;20.60;42.50
10249;DHT22;5169;50.560;9.714;2023-04-06T11:08:56;21.40;42.00
10249;DHT22;5169;50.560;9.714;2023-04-06T11:11:23;22.40;38.60
10249;DHT22;5169;50.560;9.714;2023-04-06T11:13:56;21.40;39.20
10249;DHT22;5169;50.560;9.714;2023-04-06T11:16:25;22.50;37.90
10249;DHT22;5169;50.560;9.714;2023-04-06T11:21:48;23.90;36.30
10249;DHT22;5169;50.560;9.714;2023-04-06T11:26:58;22.70;36.00
10249;DHT22;5169;50.560;9.714;2023-04-06T11:29:28;21.80;36.10
10249;DHT22;5169;50.560;9.714;2023-04-06T11:34:24;22.00;37.70
10249;DHT22;5169;50.560;9.714;2023-04-06T11:36:57;22.90;35.60
10249;DHT22;5169;50.560;9.714;2023-04-06T11:39:26;23.40;35.80
10249;DHT22;5169;50.560;9.714;2023-04-06T11:41:55;24.40;34.30
10249;DHT22;5169;50.560;9.714;2023-04-06T11:44:39;24.30;34.10
10249;DHT22;5169;50.560;9.714;2023-04-06T11:47:09;23.50;33.20
10249;DHT22;5169;50.560;9.714;2023-04-06T11:49:40;22.90;34.40
10249;DHT22;5169;50.560;9.714;2023-04-06T11:52:18;23.50;34.10
10249;DHT22;5169;50.560;9.714;2023-04-06T11:54:45;23.00;34.50
10249;DHT22;5169;50.560;9.714;2023-04-06T11:57:11;22.30;34.90
10249;DHT22;5169;50.560;9.714;2023-04-06T11:59:37;22.30;34.90
10249;DHT22;5169;50.560;9.714;2023-04-06T12:02:05;22.40;36.30
10249;DHT22;5169;50.560;9.714;2023-04-06T12:04:31;22.40;37.20
10249;DHT22;5169;50.560;9.714;2023-04-06T12:07:00;23.00;35.40
10249;DHT22;5169;50.560;9.714;2023-04-06T12:09:25;23.70;35.00
10249;DHT22;5169;50.560;9.714;2023-04-06T12:11:51;22.10;34.20
10249;DHT22;5169;50.560;9.714;2023-04-06T12:14:19;19.80;36.90
10249;DHT22;5169;50.560;9.714;2023-04-06T12:16:49;18.10;41.60
10249;DHT22;5169;50.560;9.714;2023-04-06T12:19:15;17.20;44.40
10249;DHT22;5169;50.560;9.714;2023-04-06T12:21:43;16.10;44.90
10249;DHT22;5169;50.560;9.714;2023-04-06T12:24:11;16.00;48.70
10249;DHT22;5169;50.560;9.714;2023-04-06T12:26:36;17.10;46.90
10249;DHT22;5169;50.560;9.714;2023-04-06T12:29:02;19.90;41.90
10249;DHT22;5169;50.560;9.714;2023-04-06T12:31:37;22.00;37.20
10249;DHT22;5169;50.560;9.714;2023-04-06T12:34:04;22.80;35.00
10249;DHT22;5169;50.560;9.714;2023-04-06T12:36:30;23.50;34.00
10249;DHT22;5169;50.560;9.714;2023-04-06T12:38:56;22.30;33.60
10249;DHT22;5169;50.560;9.714;2023-04-06T12:41:22;22.30;34.40
10249;DHT22;5169;50.560;9.714;2023-04-06T12:43:48;21.00;35.20
10249;DHT22;5169;50.560;9.714;2023-04-06T12:46:15;18.60;39.00
10249;DHT22;5169;50.560;9.714;2023-04-06T12:48:41;17.60;41.20
10249;DHT22;5169;50.560;9.714;2023-04-06T12:51:07;16.70;41.50
10249;DHT22;5169;50.560;9.714;2023-04-06T12:53:34;17.50;42.90
10249;DHT22;5169;50.560;9.714;2023-04-06T12:56:00;18.00;41.70
10249;DHT22;5169;50.560;9.714;2023-04-06T12:58:26;19.80;42.10
10249;DHT22;5169;50.560;9.714;2023-04-06T13:00:57;21.10;39.60
10249;DHT22;5169;50.560;9.714;2023-04-06T13:03:28;20.90;38.60
10249;DHT22;5169;50.560;9.714;2023-04-06T13:05:54;20.00;39.00
10249;DHT22;5169;50.560;9.714;2023-04-06T13:08:20;19.10;41.20
10249;DHT22;5169;50.560;9.714;2023-04-06T13:10:50;18.70;39.50
10249;DHT22;5169;50.560;9.714;2023-04-06T13:13:21;18.00;40.70
10249;DHT22;5169;50.560;9.714;2023-04-06T13:15:47;17.30;41.10
10249;DHT22;5169;50.560;9.714;2023-04-06T13:18:12;16.70;43.30
10249;DHT22;5169;50.560;9.714;2023-04-06T13:20:38;16.60;45.60
10249;DHT22;5169;50.560;9.714;2023-04-06T13:23:04;16.50;44.40
10249;DHT22;5169;50.560;9.714;2023-04-06T13:25:30;16.60;44.10
10249;DHT22;5169;50.560;9.714;2023-04-06T13:27:55;15.80;43.20
10249;DHT22;5169;50.560;9.714;2023-04-06T13:30:21;15.40;45.20
10249;DHT22;5169;50.560;9.714;2023-04-06T13:32:47;15.40;46.50
10249;DHT22;5169;50.560;9.714;2023-04-06T13:35:13;15.20;47.10
10249;DHT22;5169;50.560;9.714;2023-04-06T13:37:38;14.90;47.00
10249;DHT22;5169;50.560;9.714;2023-04-06T13:40:05;14.50;47.80
10249;DHT22;5169;50.560;9.714;2023-04-06T13:42:31;14.60;49.10
10249;DHT22;5169;50.560;9.714;2023-04-06T13:44:58;14.70;48.90
10249;DHT22;5169;50.560;9.714;2023-04-06T13:47:24;14.70;48.50
10249;DHT22;5169;50.560;9.714;2023-04-06T13:49:52;14.70;48.40
10249;DHT22;5169;50.560;9.714;2023-04-06T13:52:18;14.80;48.70
10249;DHT22;5169;50.560;9.714;2023-04-06T13:54:45;14.90;47.90
10249;DHT22;5169;50.560;9.714;2023-04-06T13:57:13;14.90;47.40
10249;DHT22;5169;50.560;9.714;2023-04-06T13:59:43;14.90;47.40
10249;DHT22;5169;50.560;9.714;2023-04-06T14:02:11;14.40;47.40
10249;DHT22;5169;50.560;9.714;2023-04-06T14:04:37;14.20;48.90
10249;DHT22;5169;50.560;9.714;2023-04-06T14:07:07;14.20;49.20
10249;DHT22;5169;50.560;9.714;2023-04-06T14:09:33;13.80;49.50
10249;DHT22;5169;50.560;9.714;2023-04-06T14:11:59;13.90;50.60
10249;DHT22;5169;50.560;9.714;2023-04-06T14:14:25;14.10;48.70
10249;DHT22;5169;50.560;9.714;2023-04-06T14:16:53;14.30;51.60
10249;DHT22;5169;50.560;9.714;2023-04-06T14:19:19;14.60;48.70
10249;DHT22;5169;50.560;9.714;2023-04-06T14:21:46;14.70;47.60
10249;DHT22;5169;50.560;9.714;2023-04-06T14:24:15;14.70;47.50
10249;DHT22;5169;50.560;9.714;2023-04-06T14:26:41;14.30;47.80
10249;DHT22;5169;50.560;9.714;2023-04-06T14:29:08;14.40;47.50
10249;DHT22;5169;50.560;9.714;2023-04-06T14:31:36;14.60;46.40
10249;DHT22;5169;50.560;9.714;2023-04-06T14:34:04;14.50;47.40
10249;DHT22;5169;50.560;9.714;2023-04-06T14:36:33;14.50;47.10
10249;DHT22;5169;50.560;9.714;2023-04-06T14:39:06;14.20;47.50
10249;DHT22;5169;50.560;9.714;2023-04-06T14:41:33;14.30;48.60
10249;DHT22;5169;50.560;9.714;2023-04-06T14:43:59;14.30;47.10
10249;DHT22;5169;50.560;9.714;2023-04-06T14:46:25;14.20;46.80
10249;DHT22;5169;50.560;9.714;2023-04-06T14:48:57;14.10;46.80
10249;DHT22;5169;50.560;9.714;2023-04-06T14:51:26;13.90;47.10
10249;DHT22;5169;50.560;9.714;2023-04-06T14:53:54;13.80;47.40
10249;DHT22;5169;50.560;9.714;2023-04-06T14:56:21;13.80;47.80
10249;DHT22;5169;50.560;9.714;2023-04-06T14:58:47;13.70;49.10
10249;DHT22;5169;50.560;9.714;2023-04-06T15:01:15;13.80;48.70
10249;DHT22;5169;50.560;9.714;2023-04-06T15:03:41;13.60;47.90
10249;DHT22;5169;50.560;9.714;2023-04-06T15:06:12;13.60;49.40
10249;DHT22;5169;50.560;9.714;2023-04-06T15:08:40;13.60;49.30
10249;DHT22;5169;50.560;9.714;2023-04-06T15:11:09;13.60;49.20
10249;DHT22;5169;50.560;9.714;2023-04-06T15:13:35;13.50;48.20
10249;DHT22;5169;50.560;9.714;2023-04-06T15:16:00;13.40;49.20
10249;DHT22;5169;50.560;9.714;2023-04-06T15:18:26;13.40;48.60
10249;DHT22;5169;50.560;9.714;2023-04-06T15:20:52;13.40;49.10
10249;DHT22;5169;50.560;9.714;2023-04-06T15:23:17;13.20;49.20
10249;DHT22;5169;50.560;9.714;2023-04-06T15:25:43;13.10;48.90
10249;DHT22;5169;50.560;9.714;2023-04-06T15:28:11;13.10;49.70
10249;DHT22;5169;50.560;9.714;2023-04-06T15:30:40;13.00;50.80
10249;DHT22;5169;50.560;9.714;2023-04-06T15:33:07;12.90;50.10
10249;DHT22;5169;50.560;9.714;2023-04-06T15:35:37;12.80;51.30
10249;DHT22;5169;50.560;9.714;2023-04-06T15:38:08;12.80;51.30
10249;DHT22;5169;50.560;9.714;2023-04-06T15:40:34;12.80;52.00
10249;DHT22;5169;50.560;9.714;2023-04-06T15:43:06;12.90;51.80
10249;DHT22;5169;50.560;9.714;2023-04-06T15:45:35;13.00;50.80
10249;DHT22;5169;50.560;9.714;2023-04-06T15:48:00;12.90;50.20
10249;DHT22;5169;50.560;9.714;2023-04-06T15:50:26;12.80;50.50
10249;DHT22;5169;50.560;9.714;2023-04-06T15:52:53;12.70;52.00
10249;DHT22;5169;50.560;9.714;2023-04-06T15:55:19;12.60;51.80
10249;DHT22;5169;50.560;9.714;2023-04-06T15:57:45;12.50;51.80
10249;DHT22;5169;50.560;9.714;2023-04-06T16:00:11;12.40;52.90
10249;DHT22;5169;50.560;9.714;2023-04-06T16:02:39;12.50;53.20
10249;DHT22;5169;50.560;9.714;2023-04-06T16:05:04;12.40;53.50